createdAt,value
2023-08-14T00:01:26.524Z,4.18
2023-08-14T00:03:35.609Z,4.32
2023-08-14T00:05:38.448Z,4.72
2023-08-14T00:07:46.592Z,3.88
2023-08-14T00:09:52.411Z,3.78
2023-08-14T00:11:57.830Z,3.50
2023-08-14T00:14:03.760Z,4.40
2023-08-14T00:16:09.124Z,4.25
2023-08-14T00:18:15.461Z,3.95
2023-08-14T00:20:24.487Z,4.03
2023-08-14T00:22:30.072Z,3.65
2023-08-14T00:24:35.936Z,3.75
2023-08-14T00:26:41.355Z,3.42
2023-08-14T00:28:47.460Z,3.78
2023-08-14T00:30:53.136Z,4.72
2023-08-14T00:32:59.059Z,3.92
2023-08-14T00:35:04.980Z,3.80
2023-08-14T00:37:12.941Z,3.78
2023-08-14T00:39:19.439Z,3.95
2023-08-14T00:41:26.987Z,4.22
2023-08-14T00:43:32.363Z,4.22
2023-08-14T00:45:46.425Z,3.83
2023-08-14T00:47:56.383Z,3.33
2023-08-14T00:50:02.623Z,3.55
2023-08-14T00:52:08.943Z,3.70
2023-08-14T00:54:17.171Z,4.07
2023-08-14T00:56:24.860Z,4.43
2023-08-14T00:58:34.985Z,3.92
2023-08-14T01:00:40.925Z,3.63
2023-08-14T01:02:47.709Z,3.97
2023-08-14T01:04:53.756Z,3.38
2023-08-14T01:07:00.503Z,2.95
2023-08-14T01:09:07.386Z,3.55
2023-08-14T01:11:24.481Z,3.95
2023-08-14T01:13:37.978Z,3.13
2023-08-14T01:15:46.836Z,2.03
2023-08-14T01:17:58.041Z,2.33
2023-08-14T01:20:04.633Z,2.70
2023-08-14T01:22:18.454Z,4.00
2023-08-14T01:24:30.120Z,3.13
2023-08-14T01:26:39.293Z,3.00
2023-08-14T01:28:48.476Z,3.65
2023-08-14T01:30:53.925Z,3.35
2023-08-14T01:32:57.325Z,3.15
2023-08-14T01:35:03.101Z,2.72
2023-08-14T01:37:16.978Z,2.95
2023-08-14T01:39:30.409Z,4.03
2023-08-14T01:41:45.063Z,3.58
2023-08-14T01:43:53.906Z,3.22
2023-08-14T01:46:01.351Z,3.65
2023-08-14T01:48:10.450Z,3.20
2023-08-14T01:50:18.740Z,3.20
2023-08-14T01:52:25.207Z,3.30
2023-08-14T01:54:31.641Z,3.60
2023-08-14T01:56:40.210Z,4.22
2023-08-14T01:58:49.656Z,3.67
2023-08-14T02:00:55.025Z,3.47
2023-08-14T02:03:01.870Z,3.70
2023-08-14T02:05:07.847Z,3.43
2023-08-14T02:07:13.838Z,3.45
2023-08-14T02:09:19.773Z,3.70
2023-08-14T02:11:25.562Z,3.65
2023-08-14T02:13:34.093Z,3.45
2023-08-14T02:15:39.472Z,3.67
2023-08-14T02:17:47.934Z,3.55
2023-08-14T02:19:54.222Z,3.30
2023-08-14T02:21:59.563Z,4.20
2023-08-14T02:24:05.045Z,3.83
2023-08-14T02:26:10.601Z,3.90
2023-08-14T02:28:18.685Z,3.78
2023-08-14T02:32:32.213Z,3.53
2023-08-14T02:34:46.518Z,3.72
2023-08-14T02:36:52.058Z,3.85
2023-08-14T02:39:00.919Z,3.42
2023-08-14T02:41:07.772Z,4.20
2023-08-14T02:43:13.430Z,4.20
2023-08-14T02:45:20.021Z,3.95
2023-08-14T02:47:28.097Z,4.32
2023-08-14T02:49:34.181Z,3.70
2023-08-14T02:51:40.555Z,4.65
2023-08-14T02:53:46.189Z,4.20
2023-08-14T02:55:54.656Z,4.05
2023-08-14T02:58:00.601Z,4.43
2023-08-14T03:00:08.379Z,3.88
2023-08-14T03:04:19.686Z,4.70
2023-08-14T03:06:25.059Z,4.63
2023-08-14T03:08:31.386Z,4.07
2023-08-14T03:10:37.032Z,3.90
2023-08-14T03:12:42.646Z,4.15
2023-08-14T03:14:48.682Z,3.97
2023-08-14T03:16:51.579Z,3.65
2023-08-14T03:18:57.582Z,3.30
2023-08-14T03:21:05.771Z,3.03
2023-08-14T03:23:11.194Z,3.40
2023-08-14T03:25:16.995Z,3.47
2023-08-14T03:27:22.356Z,3.22
2023-08-14T03:29:29.311Z,3.38
2023-08-14T03:31:35.620Z,3.67
2023-08-14T03:33:42.285Z,3.58
2023-08-14T03:35:49.422Z,3.50
2023-08-14T03:37:58.543Z,3.63
2023-08-14T03:40:04.266Z,4.20
2023-08-14T03:42:12.176Z,3.50
2023-08-14T03:44:17.601Z,3.40
2023-08-14T03:46:23.377Z,3.50
2023-08-14T03:48:30.165Z,3.30
2023-08-14T03:50:33.313Z,3.30
2023-08-14T03:52:39.796Z,3.70
2023-08-14T03:54:47.771Z,3.50
2023-08-14T03:56:54.922Z,3.63
2023-08-14T03:59:00.337Z,3.47
2023-08-14T04:01:06.628Z,3.92
2023-08-14T04:03:12.400Z,4.20
2023-08-14T04:05:18.499Z,3.60
2023-08-14T04:07:24.048Z,4.25
2023-08-14T04:09:30.644Z,3.80
2023-08-14T04:11:38.880Z,3.80
2023-08-14T04:13:46.672Z,3.38
2023-08-14T04:15:52.799Z,3.63
2023-08-14T04:18:00.317Z,4.40
2023-08-14T04:20:03.929Z,3.60
2023-08-14T04:22:09.463Z,3.60
2023-08-14T04:24:15.137Z,3.65
2023-08-14T04:26:21.100Z,3.58
2023-08-14T04:28:43.139Z,3.13
2023-08-14T04:30:49.170Z,3.30
2023-08-14T04:32:55.060Z,3.72
2023-08-14T04:35:00.801Z,3.20
2023-08-14T04:37:06.685Z,3.38
2023-08-14T04:39:13.963Z,3.42
2023-08-14T04:41:19.913Z,3.05
2023-08-14T04:43:25.534Z,2.75
2023-08-14T04:45:33.736Z,3.58
2023-08-14T04:47:40.719Z,3.35
2023-08-14T04:49:45.229Z,3.90
2023-08-14T04:51:51.525Z,3.85
2023-08-14T04:53:58.817Z,3.70
2023-08-14T04:56:04.217Z,3.28
2023-08-14T04:58:22.703Z,3.15
2023-08-14T05:00:28.291Z,3.20
2023-08-14T05:02:39.133Z,3.53
2023-08-14T05:04:44.704Z,3.60
2023-08-14T05:06:51.754Z,3.35
2023-08-14T05:09:00.570Z,2.78
2023-08-14T05:11:09.848Z,3.42
2023-08-14T05:13:13.154Z,3.38
2023-08-14T05:15:19.255Z,3.20
2023-08-14T05:17:25.945Z,3.50
2023-08-14T05:19:33.972Z,3.23
2023-08-14T05:21:39.613Z,3.20
2023-08-14T05:23:45.042Z,3.10
2023-08-14T05:25:50.673Z,3.22
2023-08-14T05:27:56.463Z,3.75
2023-08-14T05:30:03.127Z,3.63
2023-08-14T05:32:09.643Z,3.20
2023-08-14T05:34:15.000Z,3.10
2023-08-14T05:36:20.433Z,3.25
2023-08-14T05:38:26.245Z,3.00
2023-08-14T05:40:32.047Z,3.75
2023-08-14T05:42:40.313Z,3.80
2023-08-14T05:44:43.194Z,3.95
2023-08-14T05:46:49.872Z,4.20
2023-08-14T05:48:57.288Z,3.78
2023-08-14T05:51:02.688Z,4.32
2023-08-14T05:53:11.478Z,4.10
2023-08-14T05:55:17.153Z,3.90
2023-08-14T05:57:22.760Z,4.18
2023-08-14T05:59:28.360Z,4.13
2023-08-14T06:01:33.926Z,4.15
2023-08-14T06:03:44.762Z,4.50
2023-08-14T06:05:50.642Z,4.15
2023-08-14T06:08:00.793Z,4.65
2023-08-14T06:10:10.868Z,4.00
2023-08-14T06:12:16.797Z,4.78
2023-08-14T06:14:24.491Z,4.28
2023-08-14T06:16:30.147Z,4.78
2023-08-14T06:18:40.201Z,4.05
2023-08-14T06:20:46.014Z,3.95
2023-08-14T06:22:51.523Z,4.07
2023-08-14T06:24:57.432Z,4.30
2023-08-14T06:27:05.471Z,4.28
2023-08-14T06:29:11.612Z,4.32
2023-08-14T06:31:18.393Z,4.47
2023-08-14T06:33:24.169Z,4.10
2023-08-14T06:35:29.770Z,4.13
2023-08-14T06:37:36.803Z,3.58
2023-08-14T06:39:42.670Z,3.53
2023-08-14T06:41:48.137Z,4.10
2023-08-14T06:43:57.999Z,3.92
2023-08-14T06:46:03.613Z,4.20
2023-08-14T06:48:10.196Z,4.13
2023-08-14T06:50:20.258Z,4.55
2023-08-14T06:52:25.732Z,4.40
2023-08-14T06:54:31.604Z,3.88
2023-08-14T06:56:37.474Z,4.32
2023-08-14T06:58:52.351Z,4.28
2023-08-14T07:01:00.791Z,4.50
2023-08-14T07:03:11.329Z,4.00
2023-08-14T07:05:22.143Z,5.22
2023-08-14T07:07:27.568Z,4.93
2023-08-14T07:09:34.348Z,4.40
2023-08-14T07:11:41.284Z,4.38
2023-08-14T07:13:47.103Z,4.13
2023-08-14T07:15:59.400Z,4.10
2023-08-14T07:18:12.993Z,4.30
2023-08-14T07:20:18.953Z,3.75
2023-08-14T07:22:24.830Z,3.65
2023-08-14T07:24:30.638Z,3.33
2023-08-14T07:26:36.643Z,3.60
2023-08-14T07:28:58.295Z,3.40
2023-08-14T07:31:04.051Z,3.30
2023-08-14T07:33:15.032Z,3.17
2023-08-14T07:35:20.903Z,3.15
2023-08-14T07:37:26.438Z,3.22
2023-08-14T07:39:32.013Z,2.90
2023-08-14T07:41:38.388Z,2.80
2023-08-14T07:43:48.766Z,2.97
2023-08-14T07:45:54.283Z,2.72
2023-08-14T07:48:08.162Z,2.95
2023-08-14T07:50:16.865Z,2.85
2023-08-14T07:52:22.907Z,3.10
2023-08-14T07:54:28.342Z,2.95
2023-08-14T07:56:34.260Z,3.00
2023-08-14T07:58:46.366Z,3.50
2023-08-14T08:00:52.102Z,3.08
2023-08-14T08:02:58.097Z,2.72
2023-08-14T08:05:04.021Z,3.00
2023-08-14T08:07:12.807Z,3.25
2023-08-14T08:09:18.969Z,3.38
2023-08-14T08:11:32.094Z,2.95
2023-08-14T08:13:37.883Z,2.88
2023-08-14T08:15:43.443Z,2.80
2023-08-14T08:17:50.917Z,2.95
2023-08-14T08:19:56.316Z,2.97
2023-08-14T08:22:02.064Z,3.28
2023-08-14T08:24:11.065Z,3.13
2023-08-14T08:26:16.590Z,3.22
2023-08-14T08:28:22.269Z,3.45
2023-08-14T08:30:32.784Z,2.67
2023-08-14T08:32:38.213Z,3.95
2023-08-14T08:34:41.547Z,3.00
2023-08-14T08:36:46.952Z,2.88
2023-08-14T08:39:00.383Z,2.88
2023-08-14T08:41:09.911Z,3.33
2023-08-14T08:43:16.411Z,3.35
2023-08-14T08:45:23.114Z,3.17
2023-08-14T08:47:32.076Z,3.10
2023-08-14T08:49:39.065Z,2.85
2023-08-14T08:53:54.352Z,3.10
2023-08-14T08:56:14.094Z,3.65
2023-08-14T08:58:24.228Z,3.28
2023-08-14T09:00:30.065Z,3.42
2023-08-14T09:02:35.501Z,3.42
2023-08-14T09:04:42.038Z,3.50
2023-08-14T09:06:48.047Z,3.38
2023-08-14T09:09:08.922Z,3.63
2023-08-14T09:11:14.399Z,3.72
2023-08-14T09:13:31.337Z,3.35
2023-08-14T09:15:39.004Z,3.75
2023-08-14T09:17:49.616Z,3.90
2023-08-14T09:19:55.365Z,4.10
2023-08-14T09:22:00.789Z,4.10
2023-08-14T09:24:06.818Z,3.97
2023-08-14T09:26:14.766Z,3.80
2023-08-14T09:28:25.556Z,3.80
2023-08-14T09:30:31.630Z,4.28
2023-08-14T09:32:45.883Z,3.95
2023-08-14T09:34:51.589Z,3.60
2023-08-14T09:36:58.418Z,3.70
2023-08-14T09:39:12.161Z,3.80
2023-08-14T09:41:17.807Z,3.55
2023-08-14T09:43:27.554Z,3.75
2023-08-14T09:45:36.223Z,3.40
2023-08-14T09:47:47.935Z,3.97
2023-08-14T09:49:55.548Z,3.50
2023-08-14T09:52:02.264Z,3.80
2023-08-14T09:54:10.330Z,3.88
2023-08-14T09:56:16.720Z,3.40
2023-08-14T09:58:22.274Z,3.60
2023-08-14T10:00:35.448Z,3.78
2023-08-14T10:02:44.129Z,3.85
2023-08-14T10:04:50.628Z,3.20
2023-08-14T10:06:56.844Z,3.65
2023-08-14T10:09:04.693Z,3.05
2023-08-14T10:11:19.438Z,3.30
2023-08-14T10:13:26.781Z,3.55
2023-08-14T10:15:37.990Z,3.50
2023-08-14T10:17:51.390Z,3.03
2023-08-14T10:19:57.905Z,3.17
2023-08-14T10:22:04.795Z,3.00
2023-08-14T10:24:11.678Z,3.65
2023-08-14T10:26:18.395Z,2.90
2023-08-14T10:28:24.540Z,3.15
2023-08-14T10:30:39.404Z,2.97
2023-08-14T10:32:46.350Z,3.42
2023-08-14T10:34:53.167Z,3.03
2023-08-14T10:36:58.618Z,2.70
2023-08-14T10:39:18.183Z,2.83
2023-08-14T10:41:24.276Z,2.58
2023-08-14T10:43:30.142Z,3.05
2023-08-14T10:45:38.177Z,2.75
2023-08-14T10:47:49.185Z,2.85
2023-08-14T10:49:55.156Z,3.10
2023-08-14T10:52:04.883Z,3.05
2023-08-14T10:54:15.044Z,2.70
2023-08-14T10:56:20.758Z,3.05
2023-08-14T10:58:39.816Z,3.10
2023-08-14T11:00:49.545Z,3.40
2023-08-14T11:03:06.573Z,3.30
2023-08-14T11:05:17.914Z,2.90
2023-08-14T11:07:26.316Z,2.85
2023-08-14T11:09:34.690Z,3.10
2023-08-14T11:11:42.118Z,3.00
2023-08-14T11:13:48.008Z,2.97
2023-08-14T11:15:56.603Z,2.70
2023-08-14T11:18:03.057Z,2.90
2023-08-14T11:20:14.522Z,2.95
2023-08-14T11:22:20.263Z,2.70
2023-08-14T11:24:23.382Z,3.05
2023-08-14T11:26:33.147Z,2.58
2023-08-14T11:31:11.779Z,2.70
2023-08-14T11:33:17.728Z,3.13
2023-08-14T11:37:53.753Z,2.50
2023-08-14T11:40:01.329Z,2.92
2023-08-14T11:42:07.892Z,2.70
2023-08-14T11:44:13.791Z,2.90
2023-08-14T11:46:23.006Z,2.20
2023-08-14T11:48:29.956Z,2.58
2023-08-14T11:50:35.492Z,2.28
2023-08-14T11:52:49.605Z,2.30
2023-08-14T11:55:00.520Z,2.42
2023-08-14T11:57:08.837Z,2.83
2023-08-14T11:59:21.081Z,2.90
2023-08-14T12:01:29.093Z,2.63
2023-08-14T12:03:35.879Z,2.50
2023-08-14T12:05:42.638Z,2.53
2023-08-14T12:07:56.264Z,2.60
2023-08-14T12:10:02.353Z,2.50
2023-08-14T12:12:08.244Z,2.67
2023-08-14T12:14:14.566Z,2.85
2023-08-14T12:16:22.190Z,2.40
2023-08-14T12:18:30.476Z,2.03
2023-08-14T12:20:36.260Z,2.60
2023-08-14T12:22:55.528Z,2.88
2023-08-14T12:25:08.047Z,2.78
2023-08-14T12:27:19.201Z,2.50
2023-08-14T12:29:25.230Z,2.30
2023-08-14T12:31:30.767Z,2.70
2023-08-14T12:33:39.258Z,2.50
2023-08-14T12:35:45.260Z,2.53
2023-08-14T12:37:56.383Z,2.47
2023-08-14T12:40:05.001Z,2.10
2023-08-14T12:42:10.959Z,2.60
2023-08-14T12:44:16.975Z,2.10
2023-08-14T12:46:22.577Z,2.50
2023-08-14T12:48:32.425Z,2.40
2023-08-14T12:50:40.798Z,1.92
2023-08-14T12:52:48.637Z,2.30
2023-08-14T12:55:05.042Z,2.28
2023-08-14T12:57:11.151Z,2.00
2023-08-14T12:59:23.732Z,2.05
2023-08-14T13:01:31.413Z,1.98
2023-08-14T13:03:38.122Z,2.20
2023-08-14T13:05:48.351Z,2.35
2023-08-14T13:08:02.320Z,2.25
2023-08-14T13:10:09.790Z,2.38
2023-08-14T13:12:15.188Z,2.17
2023-08-14T13:14:20.623Z,2.55
2023-08-14T13:16:26.862Z,2.38
2023-08-14T13:18:37.931Z,2.27
2023-08-14T13:20:47.004Z,2.17
2023-08-14T13:22:52.799Z,1.80
2023-08-14T13:24:59.097Z,2.17
2023-08-14T13:27:09.390Z,1.90
2023-08-14T13:29:15.638Z,1.60
2023-08-14T13:31:21.560Z,1.80
2023-08-14T13:33:33.104Z,1.90
2023-08-14T13:35:39.271Z,1.73
2023-08-14T13:38:00.807Z,1.80
2023-08-14T13:40:07.941Z,1.75
2023-08-14T13:42:13.411Z,1.65
2023-08-14T13:44:19.021Z,1.55
2023-08-14T13:46:24.486Z,1.63
2023-08-14T13:48:33.554Z,1.60
2023-08-14T13:50:42.834Z,2.00
2023-08-14T13:52:51.196Z,1.80
2023-08-14T13:54:56.614Z,2.20
2023-08-14T13:56:59.971Z,2.00
2023-08-14T13:59:05.458Z,1.85
2023-08-14T14:01:12.253Z,1.92
2023-08-14T14:05:24.226Z,1.58
2023-08-14T14:07:34.303Z,1.90
2023-08-14T14:09:47.843Z,1.60
2023-08-14T14:11:54.003Z,1.75
2023-08-14T14:13:59.876Z,1.90
2023-08-14T14:16:05.412Z,1.58
2023-08-14T14:18:11.369Z,1.77
2023-08-14T14:20:29.964Z,1.95
2023-08-14T14:22:35.686Z,1.63
2023-08-14T14:24:41.100Z,1.80
2023-08-14T14:26:49.117Z,2.17
2023-08-14T14:29:00.260Z,1.98
2023-08-14T14:31:05.649Z,2.15
2023-08-14T14:33:11.345Z,2.40
2023-08-14T14:35:17.079Z,1.92
2023-08-14T14:37:22.781Z,2.28
2023-08-14T14:39:42.989Z,2.10
2023-08-14T14:41:51.488Z,2.13
2023-08-14T14:43:57.349Z,2.35
2023-08-14T14:46:03.026Z,1.95
2023-08-14T14:48:09.347Z,2.10
2023-08-14T14:50:28.606Z,2.10
2023-08-14T14:52:35.294Z,2.03
2023-08-14T14:54:40.654Z,2.80
2023-08-14T14:56:46.321Z,2.40
2023-08-14T14:58:54.815Z,2.45
2023-08-14T15:01:00.470Z,2.63
2023-08-14T15:03:06.974Z,2.50
2023-08-14T15:05:25.957Z,2.38
2023-08-14T15:07:33.964Z,2.60
2023-08-14T15:09:39.288Z,2.60
2023-08-14T15:11:44.678Z,2.92
2023-08-14T15:13:50.321Z,2.45
2023-08-14T15:16:00.759Z,2.40
2023-08-14T15:18:08.694Z,2.45
2023-08-14T15:20:14.685Z,2.50
2023-08-14T15:22:20.685Z,2.67
2023-08-14T15:24:26.138Z,2.70
2023-08-14T15:26:31.543Z,2.55
2023-08-14T15:28:43.246Z,2.80
2023-08-14T15:30:48.596Z,2.95
2023-08-14T15:32:57.177Z,3.05
2023-08-14T15:35:02.635Z,2.75
2023-08-14T15:37:08.373Z,3.00
2023-08-14T15:39:14.092Z,2.88
2023-08-14T15:41:26.177Z,2.88
2023-08-14T15:43:29.520Z,2.67
2023-08-14T15:45:35.803Z,3.50
2023-08-14T15:47:48.072Z,2.85
2023-08-14T15:49:53.427Z,2.63
2023-08-14T15:51:59.047Z,2.58
2023-08-14T15:54:04.946Z,3.45
2023-08-14T15:56:16.697Z,2.97
2023-08-14T15:58:22.328Z,3.03
2023-08-14T16:00:31.403Z,2.85
2023-08-14T16:02:37.062Z,3.20
2023-08-14T16:04:43.187Z,3.20
2023-08-14T16:06:48.653Z,2.90
2023-08-14T16:08:58.648Z,2.85
2023-08-14T16:11:04.106Z,2.60
2023-08-14T16:13:09.789Z,2.47
2023-08-14T16:15:15.226Z,2.72
2023-08-14T16:17:20.735Z,3.20
2023-08-14T16:19:30.371Z,3.30
2023-08-14T16:21:35.762Z,5.10
2023-08-14T16:23:44.299Z,2.88
2023-08-14T16:25:49.808Z,3.10
2023-08-14T16:27:58.693Z,3.10
2023-08-14T16:30:07.717Z,2.83
2023-08-14T16:32:13.149Z,2.95
2023-08-14T16:34:16.178Z,3.20
2023-08-14T16:36:21.680Z,3.03
2023-08-14T16:38:31.125Z,3.03
2023-08-14T16:40:49.657Z,3.15
2023-08-14T16:42:55.038Z,3.17
2023-08-14T16:45:00.714Z,2.92
2023-08-14T16:47:03.518Z,3.05
2023-08-14T16:49:09.977Z,3.40
2023-08-14T16:51:17.458Z,3.20
2023-08-14T16:53:22.925Z,3.20
2023-08-14T16:55:28.812Z,3.90
2023-08-14T16:57:38.757Z,3.05
2023-08-14T16:59:44.085Z,3.20
2023-08-14T17:01:49.621Z,3.15
2023-08-14T17:03:55.051Z,3.13
2023-08-14T17:06:04.082Z,3.08
2023-08-14T17:08:10.527Z,2.67
2023-08-14T17:10:16.363Z,3.20
2023-08-14T17:12:22.150Z,3.28
2023-08-14T17:14:31.303Z,3.20
2023-08-14T17:16:36.976Z,2.80
2023-08-14T17:18:43.318Z,2.92
2023-08-14T17:20:49.728Z,3.60
2023-08-14T17:22:55.166Z,3.40
2023-08-14T17:25:00.593Z,3.10
2023-08-14T17:27:06.310Z,3.10
2023-08-14T17:29:12.373Z,3.50
2023-08-14T17:31:25.663Z,3.40
2023-08-14T17:33:31.282Z,3.20
2023-08-14T17:35:36.752Z,3.50
2023-08-14T17:37:43.355Z,3.00
2023-08-14T17:39:48.864Z,3.13
2023-08-14T17:41:57.661Z,3.17
2023-08-14T17:44:03.364Z,3.60
2023-08-14T17:46:09.288Z,4.35
2023-08-14T17:48:18.054Z,4.78
2023-08-14T17:50:23.738Z,4.45
2023-08-14T17:52:29.365Z,4.22
2023-08-14T17:54:34.735Z,4.38
2023-08-14T17:56:40.129Z,4.90
2023-08-14T17:58:50.766Z,4.35
2023-08-14T18:00:56.175Z,4.65
2023-08-14T18:03:02.018Z,4.63
2023-08-14T18:05:10.982Z,4.43
2023-08-14T18:07:16.827Z,4.53
2023-08-14T18:09:22.497Z,4.47
2023-08-14T18:11:30.058Z,4.70
2023-08-14T18:13:35.728Z,4.78
2023-08-14T18:15:42.841Z,4.75
2023-08-14T18:17:55.882Z,3.92
2023-08-14T18:20:01.291Z,4.15
2023-08-14T18:22:09.517Z,4.18
2023-08-14T18:24:15.208Z,4.55
2023-08-14T18:26:20.600Z,4.40
2023-08-14T18:28:26.976Z,4.78
2023-08-14T18:30:36.810Z,4.18
2023-08-14T18:32:42.515Z,4.28
2023-08-14T18:34:48.134Z,4.63
2023-08-14T18:36:53.591Z,4.43
2023-08-14T18:39:05.428Z,5.10
2023-08-14T18:41:10.820Z,4.82
2023-08-14T18:43:16.674Z,4.88
2023-08-14T18:45:22.149Z,4.90
2023-08-14T18:47:33.962Z,4.63
2023-08-14T18:49:44.614Z,4.40
2023-08-14T18:51:49.991Z,4.40
2023-08-14T18:53:55.805Z,4.78
2023-08-14T18:56:03.780Z,4.68
2023-08-14T18:58:09.458Z,5.25
2023-08-14T19:00:16.777Z,4.82
2023-08-14T19:04:42.226Z,5.35
2023-08-14T19:06:49.808Z,5.05
2023-08-14T19:08:55.423Z,4.88
2023-08-14T19:11:03.661Z,4.70
2023-08-14T19:13:09.022Z,5.55
2023-08-14T19:15:12.110Z,5.60
2023-08-14T19:17:17.744Z,6.05
2023-08-14T19:19:32.629Z,6.30
2023-08-14T19:21:38.534Z,4.90
2023-08-14T19:23:43.946Z,6.10
2023-08-14T19:25:50.257Z,6.38
2023-08-14T19:28:15.680Z,10.80
2023-08-14T19:30:26.857Z,24.13
2023-08-14T19:32:32.500Z,6.30
2023-08-14T19:34:42.789Z,7.68
2023-08-14T19:36:48.427Z,6.70
2023-08-14T19:38:57.926Z,6.95
2023-08-14T19:41:04.014Z,5.63
2023-08-14T19:43:12.195Z,5.40
2023-08-14T19:45:17.787Z,4.45
2023-08-14T19:47:23.166Z,4.28
2023-08-14T19:49:28.569Z,6.57
2023-08-14T19:51:42.021Z,5.47
2023-08-14T19:53:47.518Z,5.68
2023-08-14T19:55:53.650Z,8.02
2023-08-14T19:58:17.318Z,6.57
2023-08-14T20:00:23.176Z,10.60
2023-08-14T20:02:30.108Z,7.20
2023-08-14T20:04:35.465Z,9.13
2023-08-14T20:06:43.961Z,7.88
2023-08-14T20:08:59.658Z,14.55
2023-08-14T20:11:05.928Z,4.90
2023-08-14T20:13:09.381Z,10.98
2023-08-14T20:15:27.110Z,3.25
2023-08-14T20:17:32.770Z,3.95
2023-08-14T20:19:38.724Z,5.35
2023-08-14T20:21:44.774Z,3.58
2023-08-14T20:23:50.204Z,2.70
2023-08-14T20:26:04.347Z,4.95
2023-08-14T20:28:12.495Z,6.05
2023-08-14T20:30:20.647Z,4.82
2023-08-14T20:32:26.449Z,5.80
2023-08-14T20:34:32.061Z,6.07
2023-08-14T20:36:37.793Z,4.97
2023-08-14T20:38:47.684Z,4.35
2023-08-14T20:40:56.579Z,21.27
2023-08-14T20:43:03.011Z,20.45
2023-08-14T20:45:09.852Z,8.02
2023-08-14T20:47:18.390Z,10.23
2023-08-14T20:49:21.421Z,12.32
2023-08-14T20:51:28.697Z,7.22
2023-08-14T20:53:40.967Z,14.55
2023-08-14T20:55:46.841Z,14.30
2023-08-14T20:57:59.536Z,8.90
2023-08-14T21:00:05.067Z,9.60
2023-08-14T21:02:11.240Z,6.60
2023-08-14T21:04:19.273Z,6.63
2023-08-14T21:06:24.671Z,7.38
2023-08-14T21:08:33.992Z,7.35
2023-08-14T21:10:41.221Z,6.85
2023-08-14T21:12:45.685Z,6.32
2023-08-14T21:14:51.098Z,6.40
2023-08-14T21:16:54.146Z,6.28
2023-08-14T21:18:59.542Z,6.88
2023-08-14T21:21:11.954Z,7.25
2023-08-14T21:23:17.837Z,6.25
2023-08-14T21:25:24.472Z,6.65
2023-08-14T21:27:31.154Z,27.95
2023-08-14T21:29:36.529Z,17.77
2023-08-14T21:31:42.384Z,10.45
2023-08-14T21:34:03.726Z,11.27
2023-08-14T21:36:11.822Z,6.63
2023-08-14T21:38:14.863Z,13.80
2023-08-14T21:40:20.810Z,6.57
2023-08-14T21:42:27.247Z,6.43
2023-08-14T21:44:32.628Z,18.17
2023-08-14T21:46:47.047Z,8.75
2023-08-14T21:48:57.445Z,7.22
2023-08-14T21:51:02.846Z,6.07
2023-08-14T21:53:11.532Z,5.40
2023-08-14T21:55:17.171Z,7.60
2023-08-14T21:57:23.352Z,6.97
2023-08-14T21:59:28.925Z,5.78
2023-08-14T22:01:44.241Z,5.32
2023-08-14T22:03:50.175Z,7.97
2023-08-14T22:06:03.359Z,7.40
2023-08-14T22:08:19.971Z,6.63
2023-08-14T22:10:25.757Z,5.53
2023-08-14T22:12:31.182Z,5.65
2023-08-14T22:14:37.057Z,5.35
2023-08-14T22:16:42.541Z,5.30
2023-08-14T22:18:52.037Z,5.03
2023-08-14T22:20:57.920Z,4.72
2023-08-14T22:23:03.920Z,4.88
2023-08-14T22:25:12.625Z,5.03
2023-08-14T22:27:15.432Z,7.38
2023-08-14T22:29:21.654Z,7.90
2023-08-14T22:31:29.335Z,8.10
2023-08-14T22:33:32.969Z,7.60
2023-08-14T22:35:38.788Z,7.07
2023-08-14T22:37:46.700Z,6.53
2023-08-14T22:39:52.566Z,7.20
2023-08-14T22:42:00.622Z,10.43
2023-08-14T22:44:06.849Z,8.07
2023-08-14T22:46:12.460Z,14.38
2023-08-14T22:48:18.158Z,6.47
2023-08-14T22:50:28.041Z,5.25
2023-08-14T22:52:33.393Z,4.47
2023-08-14T22:54:39.319Z,4.40
2023-08-14T22:56:44.708Z,4.35
2023-08-14T22:58:59.861Z,3.95
2023-08-14T23:01:05.482Z,5.00
2023-08-14T23:03:10.952Z,5.85
2023-08-14T23:05:17.414Z,5.30
2023-08-14T23:07:23.256Z,6.80
2023-08-14T23:09:28.973Z,6.35
2023-08-14T23:11:35.374Z,5.65
2023-08-14T23:13:40.823Z,6.50
2023-08-14T23:15:49.319Z,6.78
2023-08-14T23:18:00.878Z,6.05
2023-08-14T23:20:07.576Z,6.25
2023-08-14T23:22:13.434Z,8.53
2023-08-14T23:24:18.809Z,12.48
2023-08-14T23:26:25.068Z,13.73
2023-08-14T23:28:36.756Z,8.65
2023-08-14T23:30:40.065Z,7.97
2023-08-14T23:32:48.441Z,8.25
2023-08-14T23:34:55.026Z,6.47
2023-08-14T23:37:01.124Z,4.97
2023-08-14T23:39:06.985Z,6.68
2023-08-14T23:41:21.635Z,8.48
2023-08-14T23:43:27.306Z,4.13
2023-08-14T23:45:32.785Z,4.75
2023-08-14T23:47:43.726Z,10.10
2023-08-14T23:49:53.720Z,5.70
2023-08-14T23:51:59.740Z,3.85
2023-08-14T23:54:05.194Z,4.45
2023-08-14T23:56:10.894Z,4.25
2023-08-14T23:58:17.039Z,4.38
